Tifton, Georgia
Current Conditions -  °F | °C
As of 2:55 AM on Wednesday 26 Nov 2014 (Local Time) from KTMA Reporting Station
Drizzle Drizzle  
Wind Chill: 43°   Ceiling: 700
Heat Index: 46°   Visibility: 7mi
Dew Point: 46°   Wind: 7mph
Humidity: 97%   Direction: 340°NNW
Pressure: 29.98"   Gusts: NA
Location:  31.45°N, 83.51°W
Report Text: KTMA 260755Z AUTO 34006KT 7SM DZ BKN007 BKN018 OVC075 08/08 A2998 RMK AO2 T00790075
Loading
Personal Weather Stations






























Interactive Weather Map New forecast layout! Learn more

10-Day Weather Forecast

Advertisements
Track Severe Weather on mobile